createdAt,value
2018-02-03T00:09:51.615Z,7.90
2018-02-03T00:12:17.886Z,7.80
2018-02-03T00:14:44.115Z,8.13
2018-02-03T00:17:10.357Z,7.10
2018-02-03T00:19:36.690Z,7.60
2018-02-03T00:22:03.689Z,7.97
2018-02-03T00:24:29.914Z,8.23
2018-02-03T00:26:56.985Z,8.37
2018-02-03T00:29:23.162Z,8.20
2018-02-03T00:31:50.053Z,9.30
2018-02-03T00:34:16.243Z,9.40
2018-02-03T00:36:42.432Z,8.67
2018-02-03T00:39:08.607Z,8.67
2018-02-03T00:41:35.018Z,8.10
2018-02-03T00:44:02.463Z,8.10
2018-02-03T00:46:28.686Z,9.27
2018-02-03T00:48:56.494Z,9.17
2018-02-03T00:51:22.680Z,9.67
2018-02-03T00:53:49.262Z,9.40
2018-02-03T00:56:15.433Z,10.93
2018-02-03T00:58:41.641Z,10.70
2018-02-03T01:01:08.521Z,11.10
2018-02-03T01:03:34.670Z,10.20
2018-02-03T01:06:00.893Z,8.47
2018-02-03T01:08:27.895Z,9.63
2018-02-03T01:10:54.072Z,9.70
2018-02-03T01:13:21.228Z,8.83
2018-02-03T01:15:48.586Z,9.20
2018-02-03T01:18:14.782Z,10.23
2018-02-03T01:20:40.936Z,9.87
2018-02-03T01:23:07.890Z,10.93
2018-02-03T01:25:34.058Z,10.32
2018-02-03T01:28:00.480Z,10.07
2018-02-03T01:30:26.646Z,10.40
2018-02-03T01:32:53.644Z,11.45
2018-02-03T01:35:19.787Z,9.85
2018-02-03T01:37:45.978Z,9.90
2018-02-03T01:40:12.188Z,8.70
2018-02-03T01:42:39.099Z,10.77
2018-02-03T01:45:05.338Z,10.13
2018-02-03T01:47:43.804Z,10.60
2018-02-03T01:50:09.987Z,10.23
2018-02-03T01:52:36.239Z,10.88
2018-02-03T01:55:04.021Z,10.73
2018-02-03T01:57:30.194Z,11.63
2018-02-03T01:59:57.214Z,10.90
2018-02-03T02:02:25.138Z,12.35
2018-02-03T02:04:52.070Z,11.45
2018-02-03T02:07:18.230Z,10.50
2018-02-03T02:09:45.155Z,11.43
2018-02-03T02:12:11.302Z,10.05
2018-02-03T02:14:38.219Z,10.73
2018-02-03T02:17:04.382Z,10.27
2018-02-03T02:19:30.600Z,10.65
2018-02-03T02:21:56.706Z,10.55
2018-02-03T02:24:22.922Z,10.30
2018-02-03T02:26:49.106Z,9.40
2018-02-03T02:29:15.900Z,11.07
2018-02-03T02:31:42.960Z,10.15
2018-02-03T02:34:10.783Z,10.25
2018-02-03T02:36:37.025Z,10.40
2018-02-03T02:39:03.239Z,9.55
2018-02-03T02:41:29.456Z,11.30
2018-02-03T02:43:55.601Z,10.73
2018-02-03T02:46:21.911Z,11.48
2018-02-03T02:48:48.081Z,11.75
2018-02-03T02:51:14.289Z,12.32
2018-02-03T02:53:40.458Z,11.80
2018-02-03T02:56:06.669Z,12.20
2018-02-03T02:58:32.866Z,10.88
2018-02-03T03:01:00.809Z,11.35
2018-02-03T03:03:27.901Z,11.90
2018-02-03T03:05:55.181Z,10.75
2018-02-03T03:08:21.697Z,10.82
2018-02-03T03:10:48.272Z,10.73
2018-02-03T03:13:15.202Z,11.65
2018-02-03T03:15:41.368Z,11.82
2018-02-03T03:18:07.635Z,11.23
2018-02-03T03:20:33.802Z,11.23
2018-02-03T03:23:01.041Z,12.32
2018-02-03T03:25:28.502Z,11.65
2018-02-03T03:27:54.665Z,11.48
2018-02-03T03:30:20.912Z,11.90
2018-02-03T03:32:47.102Z,10.83
2018-02-03T03:35:15.109Z,11.60
2018-02-03T03:37:41.301Z,10.70
2018-02-03T03:40:08.260Z,12.13
2018-02-03T03:42:35.436Z,12.37
2018-02-03T03:45:01.662Z,11.12
2018-02-03T03:47:27.861Z,12.82
2018-02-03T03:49:55.869Z,11.23
2018-02-03T03:52:22.119Z,12.20
2018-02-03T03:54:48.285Z,10.98
2018-02-03T03:57:15.181Z,11.97
2018-02-03T03:59:42.367Z,9.38
2018-02-03T04:02:08.599Z,9.38
2018-02-03T04:04:35.825Z,11.20
2018-02-03T04:07:01.977Z,11.38
2018-02-03T04:09:28.929Z,10.00
2018-02-03T04:12:10.759Z,10.10
2018-02-03T04:14:36.924Z,10.95
2018-02-03T04:17:03.609Z,10.60
2018-02-03T04:19:30.162Z,11.70
2018-02-03T04:21:57.410Z,11.55
2018-02-03T04:24:23.609Z,8.55
2018-02-03T04:26:51.416Z,9.82
2018-02-03T04:29:17.582Z,10.05
2018-02-03T04:31:44.568Z,9.90
2018-02-03T04:34:10.741Z,11.25
2018-02-03T04:36:36.929Z,10.10
2018-02-03T04:39:03.184Z,11.45
2018-02-03T04:41:29.353Z,11.07
2018-02-03T04:43:55.591Z,10.63
2018-02-03T04:56:07.527Z,10.73
2018-02-03T04:58:34.599Z,12.68
2018-02-03T05:01:01.565Z,12.35
2018-02-03T05:03:27.774Z,13.40
2018-02-03T05:05:55.359Z,12.60
2018-02-03T05:08:22.901Z,11.70
2018-02-03T05:10:50.174Z,10.30
2018-02-03T05:13:17.049Z,12.15
2018-02-03T05:15:43.997Z,10.82
2018-02-03T05:18:10.264Z,12.87
2018-02-03T05:20:36.490Z,11.80
2018-02-03T05:23:02.648Z,12.30
2018-02-03T05:25:29.878Z,11.70
2018-02-03T05:27:56.804Z,12.60
2018-02-03T05:30:22.982Z,10.55
2018-02-03T05:32:49.173Z,8.73
2018-02-03T05:35:15.662Z,9.38
2018-02-03T05:37:41.858Z,9.47
2018-02-03T05:40:08.576Z,8.88
2018-02-03T05:42:34.800Z,9.97
2018-02-03T05:45:03.846Z,9.10
2018-02-03T05:47:30.046Z,9.10
2018-02-03T05:49:56.986Z,8.17
2018-02-03T05:52:23.918Z,7.80
2018-02-03T05:54:50.128Z,8.80
2018-02-03T05:57:16.334Z,8.10
2018-02-03T06:09:32.561Z,7.95
2018-02-03T06:11:59.445Z,10.80
2018-02-03T06:14:25.623Z,9.75
2018-02-03T06:16:53.906Z,10.23
2018-02-03T06:19:20.102Z,9.82
2018-02-03T06:21:47.248Z,11.25
2018-02-03T06:24:13.421Z,10.98
2018-02-03T06:26:39.610Z,11.55
2018-02-03T06:29:06.061Z,11.80
2018-02-03T06:31:32.696Z,12.25
2018-02-03T06:34:00.954Z,12.93
2018-02-03T06:36:27.142Z,11.23
2018-02-03T06:38:54.171Z,12.10
2018-02-03T06:41:21.296Z,12.53
2018-02-03T06:53:32.532Z,10.88
2018-02-03T06:55:59.536Z,10.65
2018-02-03T06:58:27.507Z,11.35
2018-02-03T07:00:53.998Z,13.40
2018-02-03T07:03:20.946Z,12.60
2018-02-03T07:05:47.099Z,15.30
2018-02-03T07:17:58.361Z,13.57
2018-02-03T07:20:25.452Z,12.30
2018-02-03T07:22:51.740Z,13.65
2018-02-03T07:25:17.989Z,11.32
2018-02-03T07:27:45.085Z,9.48
2018-02-03T07:30:12.129Z,9.20
2018-02-03T07:32:38.399Z,8.75
2018-02-03T07:35:05.641Z,7.93
2018-02-03T07:37:31.827Z,9.40
2018-02-03T07:39:58.940Z,10.40
2018-02-03T07:42:25.185Z,9.05
2018-02-03T07:44:51.367Z,8.70
2018-02-03T07:47:18.604Z,7.53
2018-02-03T07:59:31.225Z,8.18
2018-02-03T08:01:57.447Z,6.62
2018-02-03T08:04:24.749Z,7.85
2018-02-03T08:06:50.999Z,9.38
2018-02-03T08:09:18.835Z,8.98
2018-02-03T08:11:45.684Z,7.33
2018-02-03T08:14:11.872Z,6.32
2018-02-03T08:16:38.090Z,7.17
2018-02-03T08:19:04.397Z,6.80
2018-02-03T08:21:30.705Z,7.07
2018-02-03T08:23:56.953Z,6.53
2018-02-03T08:26:23.252Z,6.47
2018-02-03T08:28:50.278Z,6.27
2018-02-03T08:31:17.110Z,7.00
2018-02-03T08:33:43.389Z,4.70
2018-02-03T08:36:10.515Z,5.80
2018-02-03T08:38:36.739Z,6.33
2018-02-03T08:41:03.976Z,6.23
2018-02-03T08:43:30.167Z,7.20
2018-02-03T08:45:58.247Z,6.83
2018-02-03T08:48:24.503Z,5.90
2018-02-03T08:50:50.736Z,6.50
2018-02-03T08:53:17.148Z,6.87
2018-02-03T08:55:43.883Z,7.77
2018-02-03T08:58:11.599Z,7.20
2018-02-03T09:00:38.800Z,6.40
2018-02-03T09:03:06.344Z,5.73
2018-02-03T09:05:32.577Z,5.77
2018-02-03T09:07:59.574Z,6.00
2018-02-03T09:10:25.809Z,5.53
2018-02-03T09:12:52.018Z,5.57
2018-02-03T09:15:18.292Z,5.43
2018-02-03T09:17:44.859Z,5.50
2018-02-03T09:20:11.997Z,6.00
2018-02-03T09:22:38.256Z,5.13
2018-02-03T09:25:04.438Z,4.70
2018-02-03T09:27:31.696Z,6.43
2018-02-03T09:29:57.904Z,4.20
2018-02-03T09:32:25.926Z,5.70
2018-02-03T09:34:52.542Z,4.50
2018-02-03T09:37:18.728Z,5.67
2018-02-03T09:39:44.923Z,4.80
2018-02-03T09:42:11.842Z,4.63
2018-02-03T09:44:38.082Z,4.07
2018-02-03T09:47:05.006Z,3.70
2018-02-03T09:49:31.346Z,3.77
2018-02-03T09:51:58.569Z,5.40
2018-02-03T09:54:25.248Z,3.70
2018-02-03T09:56:52.410Z,3.70
2018-02-03T09:59:19.674Z,4.70
2018-02-03T10:01:47.148Z,4.37
2018-02-03T10:04:13.388Z,4.20
2018-02-03T10:06:39.614Z,4.30
2018-02-03T10:09:06.387Z,4.00
2018-02-03T10:11:32.632Z,4.30
2018-02-03T10:14:00.758Z,4.20
2018-02-03T10:16:27.765Z,4.70
2018-02-03T10:18:54.766Z,4.13
2018-02-03T10:21:22.476Z,2.87
2018-02-03T10:23:49.430Z,3.60
2018-02-03T10:26:16.347Z,3.40
2018-02-03T10:28:42.574Z,3.90
2018-02-03T10:31:09.138Z,3.17
2018-02-03T10:33:35.927Z,2.83
2018-02-03T10:36:02.158Z,2.70
2018-02-03T10:38:29.308Z,2.53
2018-02-03T10:40:55.557Z,3.30
2018-02-03T10:43:21.788Z,3.17
2018-02-03T10:45:48.011Z,3.53
2018-02-03T10:48:14.231Z,2.50
2018-02-03T10:50:42.395Z,3.03
2018-02-03T10:53:08.791Z,4.40
2018-02-03T10:55:35.749Z,3.20
2018-02-03T10:58:01.940Z,3.50
2018-02-03T11:00:34.274Z,3.00
2018-02-03T11:03:01.013Z,3.60
2018-02-03T11:05:28.115Z,2.57
2018-02-03T11:07:55.111Z,2.33
2018-02-03T11:10:22.440Z,2.80
2018-02-03T11:12:49.446Z,2.70
2018-02-03T11:15:15.985Z,2.60
2018-02-03T11:17:43.321Z,3.97
2018-02-03T11:20:09.535Z,4.60
2018-02-03T11:22:35.739Z,5.07
2018-02-03T11:25:02.652Z,5.80
2018-02-03T11:27:30.038Z,5.90
2018-02-03T11:29:56.229Z,5.90
2018-02-03T11:32:23.485Z,4.87
2018-02-03T11:44:34.692Z,3.57
2018-02-03T11:47:02.906Z,4.10
2018-02-03T11:49:30.544Z,3.63
2018-02-03T11:51:57.102Z,4.20
2018-02-03T11:54:25.389Z,4.10
2018-02-03T11:56:52.381Z,4.20
2018-02-03T11:59:19.176Z,4.47
2018-02-03T12:01:46.349Z,3.50
2018-02-03T12:04:14.109Z,3.63
2018-02-03T12:06:41.338Z,4.27
2018-02-03T12:09:09.080Z,3.80
2018-02-03T12:11:35.285Z,4.10
2018-02-03T12:14:01.469Z,3.87
2018-02-03T12:16:27.671Z,4.40
2018-02-03T12:18:56.618Z,4.03
2018-02-03T12:21:24.414Z,4.47
2018-02-03T12:23:50.834Z,3.87
2018-02-03T12:26:18.943Z,4.00
2018-02-03T12:28:45.153Z,5.03
2018-02-03T12:31:11.958Z,4.40
2018-02-03T12:33:38.150Z,6.20
2018-02-03T12:45:55.259Z,5.53
2018-02-03T12:48:23.401Z,6.17
2018-02-03T12:50:50.488Z,6.13
2018-02-03T12:53:19.180Z,6.60
2018-02-03T12:55:45.398Z,6.17
2018-02-03T12:58:12.405Z,6.73
2018-02-03T13:00:38.699Z,5.60
2018-02-03T13:03:05.365Z,5.67
2018-02-03T13:05:31.528Z,5.20
2018-02-03T13:07:57.771Z,5.90
2018-02-03T13:10:24.676Z,5.80
2018-02-03T13:12:51.465Z,5.20
2018-02-03T13:15:17.643Z,6.33
2018-02-03T13:17:43.981Z,5.13
2018-02-03T13:20:10.266Z,4.87
2018-02-03T13:22:37.218Z,4.97
2018-02-03T13:25:04.282Z,4.70
2018-02-03T13:27:30.830Z,5.50
2018-02-03T13:29:57.014Z,5.30
2018-02-03T13:32:23.979Z,4.33
2018-02-03T13:34:50.151Z,5.50
2018-02-03T13:37:16.354Z,4.83
2018-02-03T13:39:42.569Z,5.07
2018-02-03T13:42:09.149Z,5.17
2018-02-03T13:44:35.338Z,4.90
2018-02-03T13:47:01.824Z,4.10
2018-02-03T13:49:27.991Z,4.40
2018-02-03T13:51:54.172Z,4.37
2018-02-03T13:54:20.383Z,5.60
2018-02-03T13:56:47.378Z,4.40
2018-02-03T13:59:14.297Z,4.73
2018-02-03T14:01:40.578Z,5.37
2018-02-03T14:04:06.782Z,4.90
2018-02-03T14:06:33.759Z,4.67
2018-02-03T14:08:59.950Z,3.83
2018-02-03T14:11:26.928Z,5.97
2018-02-03T14:13:53.190Z,5.13
2018-02-03T14:16:19.374Z,5.20
2018-02-03T14:18:45.627Z,6.40
2018-02-03T14:21:12.592Z,6.10
2018-02-03T14:23:38.818Z,5.17
2018-02-03T14:26:11.176Z,5.73
2018-02-03T14:28:39.330Z,5.33
2018-02-03T14:31:05.533Z,5.43
2018-02-03T14:33:32.521Z,7.03
2018-02-03T14:35:58.726Z,5.97
2018-02-03T14:38:25.057Z,6.63
2018-02-03T14:40:51.512Z,6.80
2018-02-03T14:43:17.714Z,5.77
2018-02-03T14:45:43.908Z,6.13
2018-02-03T14:48:11.083Z,6.27
2018-02-03T14:50:38.399Z,6.83
2018-02-03T14:53:04.596Z,5.13
2018-02-03T14:55:31.649Z,6.60
2018-02-03T14:57:57.876Z,7.03
2018-02-03T15:00:24.088Z,5.40
2018-02-03T15:02:51.726Z,5.00
2018-02-03T15:05:18.683Z,6.00
2018-02-03T15:07:46.029Z,5.53
2018-02-03T15:10:12.959Z,6.63
2018-02-03T15:12:39.258Z,5.83
2018-02-03T15:15:06.155Z,6.20
2018-02-03T15:17:32.402Z,5.40
2018-02-03T15:20:00.574Z,7.07
2018-02-03T15:22:26.821Z,5.60
2018-02-03T15:24:54.123Z,5.27
2018-02-03T15:27:21.998Z,5.07
2018-02-03T15:29:49.057Z,5.37
2018-02-03T15:32:16.440Z,5.13
2018-02-03T15:34:42.652Z,5.90
2018-02-03T15:37:09.578Z,4.60
2018-02-03T15:39:36.822Z,4.57
2018-02-03T15:42:03.072Z,4.57
2018-02-03T15:44:30.245Z,4.57
2018-02-03T15:46:57.275Z,3.87
2018-02-03T15:49:24.530Z,2.70
2018-02-03T15:51:52.542Z,3.00
2018-02-03T15:54:18.808Z,4.80
2018-02-03T15:56:46.464Z,5.40
2018-02-03T15:59:13.559Z,3.90
2018-02-03T16:01:40.282Z,3.97
2018-02-03T16:04:09.490Z,5.70
2018-02-03T16:06:36.592Z,5.30
2018-02-03T16:09:04.682Z,5.00
2018-02-03T16:11:34.249Z,5.40
2018-02-03T16:14:02.656Z,4.80
2018-02-03T16:16:32.581Z,4.80
2018-02-03T16:18:59.566Z,5.30
2018-02-03T16:21:25.900Z,4.80
2018-02-03T16:23:52.882Z,4.23
2018-02-03T16:26:19.724Z,4.60
2018-02-03T16:28:45.939Z,5.10
2018-02-03T16:31:13.077Z,6.00
2018-02-03T16:33:41.087Z,6.87
2018-02-03T16:36:08.862Z,7.70
2018-02-03T16:38:35.957Z,6.87
2018-02-03T16:41:02.674Z,6.17
2018-02-03T16:43:29.739Z,5.23
2018-02-03T16:45:56.386Z,5.17
2018-02-03T16:48:24.429Z,5.00
2018-02-03T16:50:52.100Z,5.60
2018-02-03T16:53:19.143Z,5.37
2018-02-03T16:55:46.913Z,5.40
2018-02-03T16:58:15.296Z,5.93
2018-02-03T17:00:44.888Z,5.90
2018-02-03T17:03:11.843Z,5.70
2018-02-03T17:05:40.519Z,5.93
2018-02-03T17:08:08.178Z,6.10
2018-02-03T17:10:35.060Z,5.97
2018-02-03T17:13:01.687Z,6.60
2018-02-03T17:15:28.010Z,5.73
2018-02-03T17:17:54.433Z,5.90
2018-02-03T17:20:20.679Z,5.70
2018-02-03T17:22:47.944Z,6.77
2018-02-03T17:25:17.914Z,6.80
2018-02-03T17:27:44.986Z,8.40
2018-02-03T17:30:13.897Z,7.77
2018-02-03T17:32:41.133Z,7.30
2018-02-03T17:35:09.775Z,10.20
2018-02-03T17:37:43.110Z,11.93
2018-02-03T17:40:10.869Z,10.63
2018-02-03T17:42:38.638Z,11.70
2018-02-03T17:54:58.240Z,7.93
2018-02-03T17:57:31.487Z,7.37
2018-02-03T17:59:58.730Z,6.80
2018-02-03T18:02:27.003Z,7.50
2018-02-03T18:04:55.474Z,7.60
2018-02-03T18:07:25.197Z,7.33
2018-02-03T18:09:53.368Z,6.60
2018-02-03T18:12:23.280Z,7.37
2018-02-03T18:14:51.740Z,9.10
2018-02-03T18:17:19.058Z,7.93
2018-02-03T18:29:35.322Z,6.70
2018-02-03T18:32:02.799Z,7.03
2018-02-03T18:34:30.302Z,7.00
2018-02-03T18:36:58.278Z,6.90
2018-02-03T18:39:25.724Z,6.60
2018-02-03T18:41:52.262Z,6.20
2018-02-03T18:44:21.204Z,6.63
2018-02-03T18:46:47.409Z,8.13
2018-02-03T18:49:16.334Z,8.53
2018-02-03T18:51:42.550Z,8.20
2018-02-03T18:54:09.657Z,6.93
2018-02-03T18:56:37.361Z,6.03
2018-02-03T18:59:03.648Z,7.47
2018-02-03T19:01:31.535Z,6.27
2018-02-03T19:03:58.509Z,5.70
2018-02-03T19:06:26.251Z,6.33
2018-02-03T19:08:54.808Z,6.13
2018-02-03T19:11:21.844Z,6.10
2018-02-03T19:13:51.224Z,5.90
2018-02-03T19:16:18.194Z,5.10
2018-02-03T19:18:44.479Z,5.27
2018-02-03T19:21:11.789Z,5.27
2018-02-03T19:23:39.814Z,4.90
2018-02-03T19:26:06.631Z,5.25
2018-02-03T19:28:34.930Z,5.20
2018-02-03T19:31:03.818Z,5.20
2018-02-03T19:33:32.952Z,5.20
2018-02-03T19:36:00.419Z,5.00
2018-02-03T19:38:27.912Z,5.15
2018-02-03T19:40:54.171Z,6.07
2018-02-03T19:43:21.254Z,5.72
2018-02-03T19:45:47.480Z,5.20
2018-02-03T19:48:13.755Z,5.80
2018-02-03T19:50:42.488Z,6.80
2018-02-03T19:53:09.444Z,6.43
2018-02-03T20:05:25.739Z,6.57
2018-02-03T20:07:53.666Z,6.60
2018-02-03T20:20:09.897Z,5.03
2018-02-03T20:22:39.860Z,4.93
2018-02-03T20:25:06.950Z,3.95
2018-02-03T20:27:34.371Z,4.00
2018-02-03T20:30:00.932Z,5.20
2018-02-03T20:32:27.997Z,5.43
2018-02-03T20:34:57.069Z,4.43
2018-02-03T20:37:23.695Z,5.22
2018-02-03T20:39:49.917Z,5.53
2018-02-03T20:42:17.527Z,4.40
2018-02-03T20:44:43.720Z,5.80
2018-02-03T20:47:12.289Z,6.60
2018-02-03T20:49:38.834Z,5.80
2018-02-03T20:52:05.048Z,5.80
2018-02-03T20:54:32.083Z,5.20
2018-02-03T20:56:59.702Z,5.30
2018-02-03T20:59:25.941Z,5.55
2018-02-03T21:01:52.234Z,5.03
2018-02-03T21:04:18.445Z,4.80
2018-02-03T21:06:44.641Z,4.55
2018-02-03T21:09:11.563Z,5.20
2018-02-03T21:11:39.491Z,5.03
2018-02-03T21:14:06.399Z,4.80
2018-02-03T21:16:34.959Z,3.90
2018-02-03T21:19:01.966Z,4.32
2018-02-03T21:21:29.074Z,6.15
2018-02-03T21:23:56.074Z,4.50
2018-02-03T21:26:22.287Z,5.72
2018-02-03T21:28:48.849Z,7.07
2018-02-03T21:31:15.080Z,5.20
2018-02-03T21:43:27.137Z,4.93
2018-02-03T21:45:54.812Z,4.72
2018-02-03T21:48:21.562Z,4.65
2018-02-03T21:50:47.840Z,4.95
2018-02-03T21:53:14.362Z,5.03
2018-02-03T21:55:42.431Z,5.18
2018-02-03T21:58:09.556Z,5.50
2018-02-03T22:00:38.268Z,4.37
2018-02-03T22:03:04.500Z,5.07
2018-02-03T22:05:30.757Z,5.80
2018-02-03T22:07:57.601Z,4.85
2018-02-03T22:10:25.544Z,5.40
2018-02-03T22:12:51.808Z,6.22
2018-02-03T22:15:19.578Z,5.50
2018-02-03T22:27:39.801Z,4.97
2018-02-03T22:30:06.561Z,5.45
2018-02-03T22:32:34.535Z,5.60
2018-02-03T22:35:01.633Z,4.95
2018-02-03T22:37:31.655Z,4.97
2018-02-03T22:39:58.178Z,4.90
2018-02-03T22:42:27.314Z,5.75
2018-02-03T22:44:55.751Z,5.75
2018-02-03T22:47:23.266Z,5.72
2018-02-03T22:49:50.401Z,5.65
2018-02-03T22:52:18.227Z,6.10
2018-02-03T22:54:46.031Z,6.05
2018-02-03T22:57:13.392Z,5.05
2018-02-03T22:59:39.592Z,5.20
2018-02-03T23:02:08.459Z,5.32
2018-02-03T23:04:35.674Z,4.87
2018-02-03T23:07:06.024Z,5.35
2018-02-03T23:09:32.235Z,4.90
2018-02-03T23:11:58.801Z,3.92
2018-02-03T23:14:25.794Z,4.87
2018-02-03T23:16:52.038Z,4.85
2018-02-03T23:19:21.839Z,4.80
2018-02-03T23:21:48.061Z,5.70
2018-02-03T23:24:17.362Z,4.37
2018-02-03T23:26:44.517Z,5.30
2018-02-03T23:29:10.700Z,5.15
2018-02-03T23:31:37.888Z,5.85
2018-02-03T23:34:04.118Z,5.07
2018-02-03T23:36:30.965Z,5.20
2018-02-03T23:38:59.029Z,5.43
2018-02-03T23:41:25.228Z,4.95
2018-02-03T23:43:52.202Z,4.57
2018-02-03T23:46:19.423Z,5.05
2018-02-03T23:48:45.675Z,5.65
2018-02-03T23:51:13.335Z,5.63
2018-02-03T23:53:41.075Z,5.82
2018-02-03T23:56:07.628Z,5.85
2018-02-03T23:58:34.633Z,8.27
